sensor_id;sensor_type;location;lat;lon;timestamp;pressure;altitude;pressure_sealevel;temperature;humidity
9695;BME280;4690;52.422;13.486;2023-02-12T00:06:22;103040.00;;;8.93;91.34
9695;BME280;4690;52.422;13.486;2023-02-12T00:08:53;103056.94;;;8.97;91.13
9695;BME280;4690;52.422;13.486;2023-02-12T00:11:26;103057.25;;;8.94;90.46
9695;BME280;4690;52.422;13.486;2023-02-12T00:13:53;103069.03;;;8.94;90.79
9695;BME280;4690;52.422;13.486;2023-02-12T00:16:26;103069.75;;;8.96;90.90
9695;BME280;4690;52.422;13.486;2023-02-12T00:18:55;103061.53;;;8.96;90.76
9695;BME280;4690;52.422;13.486;2023-02-12T00:21:22;103068.03;;;8.95;91.35
9695;BME280;4690;52.422;13.486;2023-02-12T00:23:48;103071.44;;;8.97;90.84
9695;BME280;4690;52.422;13.486;2023-02-12T00:26:17;103077.09;;;8.96;91.08
9695;BME280;4690;52.422;13.486;2023-02-12T00:28:43;103082.63;;;9.04;90.54
9695;BME280;4690;52.422;13.486;2023-02-12T00:31:17;103080.38;;;9.00;90.22
9695;BME280;4690;52.422;13.486;2023-02-12T00:33:43;103075.22;;;8.96;90.60
9695;BME280;4690;52.422;13.486;2023-02-12T00:36:14;103081.59;;;9.05;90.20
9695;BME280;4690;52.422;13.486;2023-02-12T00:38:40;103079.84;;;8.96;89.50
9695;BME280;4690;52.422;13.486;2023-02-12T00:41:06;103074.75;;;9.01;89.77
9695;BME280;4690;52.422;13.486;2023-02-12T00:43:31;103080.69;;;8.96;89.68
9695;BME280;4690;52.422;13.486;2023-02-12T00:45:57;103084.66;;;9.02;89.42
9695;BME280;4690;52.422;13.486;2023-02-12T00:48:23;103080.50;;;8.98;89.46
9695;BME280;4690;52.422;13.486;2023-02-12T00:50:49;103082.94;;;9.01;89.10
9695;BME280;4690;52.422;13.486;2023-02-12T00:53:16;103088.34;;;8.93;89.60
9695;BME280;4690;52.422;13.486;2023-02-12T00:55:42;103089.91;;;8.95;89.22
9695;BME280;4690;52.422;13.486;2023-02-12T00:58:08;103102.38;;;8.98;89.27
9695;BME280;4690;52.422;13.486;2023-02-12T01:00:35;103110.44;;;9.00;89.70
9695;BME280;4690;52.422;13.486;2023-02-12T01:03:01;103110.69;;;8.88;89.70
9695;BME280;4690;52.422;13.486;2023-02-12T01:05:26;103111.31;;;9.00;89.71
9695;BME280;4690;52.422;13.486;2023-02-12T01:07:53;103115.13;;;9.07;88.57
9695;BME280;4690;52.422;13.486;2023-02-12T01:10:20;103119.03;;;9.05;88.25
9695;BME280;4690;52.422;13.486;2023-02-12T01:12:47;103123.88;;;9.11;88.48
9695;BME280;4690;52.422;13.486;2023-02-12T01:15:14;103118.25;;;9.12;87.82
9695;BME280;4690;52.422;13.486;2023-02-12T01:17:41;103126.47;;;9.12;87.95
9695;BME280;4690;52.422;13.486;2023-02-12T01:20:11;103117.06;;;9.15;88.08
9695;BME280;4690;52.422;13.486;2023-02-12T01:22:38;103122.38;;;9.16;87.58
9695;BME280;4690;52.422;13.486;2023-02-12T01:25:05;103129.88;;;9.14;87.52
9695;BME280;4690;52.422;13.486;2023-02-12T01:27:32;103129.56;;;9.17;87.47
9695;BME280;4690;52.422;13.486;2023-02-12T01:29:58;103122.25;;;9.18;87.31
9695;BME280;4690;52.422;13.486;2023-02-12T01:32:24;103122.06;;;9.19;86.85
9695;BME280;4690;52.422;13.486;2023-02-12T01:34:50;103129.56;;;9.17;86.95
9695;BME280;4690;52.422;13.486;2023-02-12T01:37:16;103120.59;;;9.07;86.71
9695;BME280;4690;52.422;13.486;2023-02-12T01:39:41;103129.66;;;9.08;87.04
9695;BME280;4690;52.422;13.486;2023-02-12T01:42:12;103127.06;;;9.06;87.06
9695;BME280;4690;52.422;13.486;2023-02-12T01:47:37;103133.81;;;8.94;86.74
9695;BME280;4690;52.422;13.486;2023-02-12T01:50:03;103135.69;;;8.93;87.74
9695;BME280;4690;52.422;13.486;2023-02-12T01:52:35;103143.41;;;8.98;87.72
9695;BME280;4690;52.422;13.486;2023-02-12T01:55:07;103141.78;;;9.05;87.34
9695;BME280;4690;52.422;13.486;2023-02-12T01:57:40;103146.94;;;9.08;87.33
9695;BME280;4690;52.422;13.486;2023-02-12T02:00:13;103140.59;;;9.08;86.55
9695;BME280;4690;52.422;13.486;2023-02-12T02:02:42;103136.16;;;9.07;86.75
9695;BME280;4690;52.422;13.486;2023-02-12T02:05:11;103142.94;;;9.03;86.63
9695;BME280;4690;52.422;13.486;2023-02-12T02:07:42;103141.91;;;9.04;86.70
9695;BME280;4690;52.422;13.486;2023-02-12T02:10:10;103149.91;;;8.97;86.88
9695;BME280;4690;52.422;13.486;2023-02-12T02:12:36;103151.06;;;8.94;86.91
9695;BME280;4690;52.422;13.486;2023-02-12T02:15:21;103152.09;;;8.93;87.22
9695;BME280;4690;52.422;13.486;2023-02-12T02:18:05;103152.56;;;8.89;86.92
9695;BME280;4690;52.422;13.486;2023-02-12T02:21:29;103150.53;;;8.91;86.90
9695;BME280;4690;52.422;13.486;2023-02-12T02:27:23;103151.78;;;8.96;86.89
9695;BME280;4690;52.422;13.486;2023-02-12T02:33:04;103154.59;;;8.87;86.93
9695;BME280;4690;52.422;13.486;2023-02-12T02:36:14;103152.88;;;8.86;87.12
9695;BME280;4690;52.422;13.486;2023-02-12T02:38:59;103155.16;;;8.90;87.06
9695;BME280;4690;52.422;13.486;2023-02-12T02:41:35;103144.03;;;8.92;86.74
9695;BME280;4690;52.422;13.486;2023-02-12T02:44:13;103145.47;;;8.96;86.54
9695;BME280;4690;52.422;13.486;2023-02-12T02:46:48;103145.28;;;8.97;86.58
9695;BME280;4690;52.422;13.486;2023-02-12T02:49:23;103148.88;;;8.98;86.52
9695;BME280;4690;52.422;13.486;2023-02-12T02:51:58;103150.63;;;8.99;86.28
9695;BME280;4690;52.422;13.486;2023-02-12T02:54:33;103155.38;;;8.97;86.31
9695;BME280;4690;52.422;13.486;2023-02-12T02:57:11;103157.97;;;8.98;86.54
9695;BME280;4690;52.422;13.486;2023-02-12T02:59:46;103162.00;;;8.94;86.91
9695;BME280;4690;52.422;13.486;2023-02-12T03:02:21;103160.00;;;8.96;86.46
9695;BME280;4690;52.422;13.486;2023-02-12T03:05:03;103159.13;;;8.96;86.65
9695;BME280;4690;52.422;13.486;2023-02-12T03:07:41;103171.97;;;8.95;86.84
9695;BME280;4690;52.422;13.486;2023-02-12T03:10:19;103172.63;;;8.97;86.33
9695;BME280;4690;52.422;13.486;2023-02-12T03:13:02;103181.16;;;8.94;86.79
9695;BME280;4690;52.422;13.486;2023-02-12T03:15:38;103188.09;;;8.89;86.47
9695;BME280;4690;52.422;13.486;2023-02-12T03:18:14;103185.91;;;8.92;86.67
9695;BME280;4690;52.422;13.486;2023-02-12T03:20:47;103190.94;;;8.97;86.89
9695;BME280;4690;52.422;13.486;2023-02-12T03:23:22;103187.88;;;9.00;86.72
9695;BME280;4690;52.422;13.486;2023-02-12T03:26:13;103193.34;;;9.00;86.60
9695;BME280;4690;52.422;13.486;2023-02-12T03:28:43;103196.25;;;8.98;86.36
9695;BME280;4690;52.422;13.486;2023-02-12T03:34:29;103195.22;;;9.00;86.61
9695;BME280;4690;52.422;13.486;2023-02-12T03:37:30;103197.09;;;8.99;86.61
9695;BME280;4690;52.422;13.486;2023-02-12T03:40:17;103202.41;;;9.01;86.50
9695;BME280;4690;52.422;13.486;2023-02-12T03:43:02;103199.53;;;9.02;86.13
9695;BME280;4690;52.422;13.486;2023-02-12T03:45:44;103205.72;;;9.04;85.96
9695;BME280;4690;52.422;13.486;2023-02-12T03:48:55;103202.09;;;9.04;86.08
9695;BME280;4690;52.422;13.486;2023-02-12T03:51:43;103201.25;;;9.03;86.04
9695;BME280;4690;52.422;13.486;2023-02-12T03:54:13;103207.03;;;9.00;86.28
9695;BME280;4690;52.422;13.486;2023-02-12T03:57:14;103217.19;;;8.90;86.30
9695;BME280;4690;52.422;13.486;2023-02-12T03:59:43;103212.41;;;8.92;86.51
9695;BME280;4690;52.422;13.486;2023-02-12T04:02:09;103212.19;;;8.85;85.98
9695;BME280;4690;52.422;13.486;2023-02-12T04:04:35;103218.34;;;8.87;86.27
9695;BME280;4690;52.422;13.486;2023-02-12T04:07:01;103222.81;;;8.88;86.19
9695;BME280;4690;52.422;13.486;2023-02-12T04:09:30;103220.91;;;8.89;86.10
9695;BME280;4690;52.422;13.486;2023-02-12T04:12:32;103226.88;;;8.84;86.10
9695;BME280;4690;52.422;13.486;2023-02-12T04:21:26;103221.84;;;8.80;85.78
9695;BME280;4690;52.422;13.486;2023-02-12T04:24:35;103230.38;;;8.77;86.03
9695;BME280;4690;52.422;13.486;2023-02-12T04:27:19;103224.63;;;8.70;85.97
9695;BME280;4690;52.422;13.486;2023-02-12T04:30:20;103231.00;;;8.70;85.77
9695;BME280;4690;52.422;13.486;2023-02-12T04:32:58;103232.69;;;8.71;85.62
9695;BME280;4690;52.422;13.486;2023-02-12T04:35:45;103236.06;;;8.65;86.11
9695;BME280;4690;52.422;13.486;2023-02-12T04:38:27;103234.47;;;8.63;85.93
9695;BME280;4690;52.422;13.486;2023-02-12T04:40:57;103232.06;;;8.60;85.92
9695;BME280;4690;52.422;13.486;2023-02-12T04:43:33;103249.91;;;8.54;86.04
9695;BME280;4690;52.422;13.486;2023-02-12T04:46:06;103247.19;;;8.54;86.01
9695;BME280;4690;52.422;13.486;2023-02-12T04:48:33;103247.19;;;8.54;86.06
9695;BME280;4690;52.422;13.486;2023-02-12T04:50:59;103252.97;;;8.51;86.06
9695;BME280;4690;52.422;13.486;2023-02-12T04:53:25;103245.38;;;8.45;86.08
9695;BME280;4690;52.422;13.486;2023-02-12T04:55:51;103243.50;;;8.45;86.26
9695;BME280;4690;52.422;13.486;2023-02-12T04:58:17;103240.91;;;8.44;86.17
9695;BME280;4690;52.422;13.486;2023-02-12T05:00:43;103242.63;;;8.45;86.26
9695;BME280;4690;52.422;13.486;2023-02-12T05:03:09;103234.56;;;8.43;86.23
9695;BME280;4690;52.422;13.486;2023-02-12T05:05:35;103244.19;;;8.38;86.38
9695;BME280;4690;52.422;13.486;2023-02-12T05:08:01;103242.50;;;8.37;86.18
9695;BME280;4690;52.422;13.486;2023-02-12T05:10:27;103247.00;;;8.28;86.12
9695;BME280;4690;52.422;13.486;2023-02-12T05:12:54;103249.31;;;8.23;86.44
9695;BME280;4690;52.422;13.486;2023-02-12T05:15:20;103245.00;;;8.20;86.90
9695;BME280;4690;52.422;13.486;2023-02-12T05:17:46;103246.28;;;8.16;86.59
9695;BME280;4690;52.422;13.486;2023-02-12T05:20:12;103246.75;;;8.12;86.53
9695;BME280;4690;52.422;13.486;2023-02-12T05:22:39;103248.78;;;8.09;86.44
9695;BME280;4690;52.422;13.486;2023-02-12T05:25:05;103255.38;;;8.07;86.96
9695;BME280;4690;52.422;13.486;2023-02-12T05:27:30;103260.44;;;8.02;87.24
9695;BME280;4690;52.422;13.486;2023-02-12T05:29:56;103253.69;;;8.06;87.39
9695;BME280;4690;52.422;13.486;2023-02-12T05:32:23;103258.84;;;8.09;87.03
9695;BME280;4690;52.422;13.486;2023-02-12T05:34:49;103262.56;;;8.08;87.53
9695;BME280;4690;52.422;13.486;2023-02-12T05:37:14;103272.31;;;8.11;87.39
9695;BME280;4690;52.422;13.486;2023-02-12T05:39:40;103270.91;;;8.06;87.84
9695;BME280;4690;52.422;13.486;2023-02-12T05:42:06;103273.22;;;8.11;88.30
9695;BME280;4690;52.422;13.486;2023-02-12T05:44:32;103276.81;;;8.12;88.07
9695;BME280;4690;52.422;13.486;2023-02-12T05:46:58;103271.75;;;8.17;88.46
9695;BME280;4690;52.422;13.486;2023-02-12T05:49:23;103268.56;;;8.21;88.19
9695;BME280;4690;52.422;13.486;2023-02-12T05:51:49;103266.38;;;8.25;87.70
9695;BME280;4690;52.422;13.486;2023-02-12T05:54:15;103269.69;;;8.28;87.81
9695;BME280;4690;52.422;13.486;2023-02-12T05:56:46;103264.94;;;8.30;87.74
9695;BME280;4690;52.422;13.486;2023-02-12T05:59:21;103265.34;;;8.36;87.38
9695;BME280;4690;52.422;13.486;2023-02-12T06:01:50;103270.97;;;8.34;87.74
9695;BME280;4690;52.422;13.486;2023-02-12T06:04:27;103276.13;;;8.37;87.56
9695;BME280;4690;52.422;13.486;2023-02-12T06:06:55;103273.41;;;8.37;87.71
9695;BME280;4690;52.422;13.486;2023-02-12T06:09:22;103281.34;;;8.40;88.00
9695;BME280;4690;52.422;13.486;2023-02-12T06:11:48;103278.44;;;8.42;87.56
9695;BME280;4690;52.422;13.486;2023-02-12T06:14:17;103279.31;;;8.42;87.40
9695;BME280;4690;52.422;13.486;2023-02-12T06:16:46;103281.59;;;8.37;87.74
9695;BME280;4690;52.422;13.486;2023-02-12T06:19:13;103281.72;;;8.36;88.21
9695;BME280;4690;52.422;13.486;2023-02-12T06:21:39;103283.91;;;8.42;88.12
9695;BME280;4690;52.422;13.486;2023-02-12T06:24:05;103287.03;;;8.47;88.02
9695;BME280;4690;52.422;13.486;2023-02-12T06:26:31;103304.16;;;8.49;87.75
9695;BME280;4690;52.422;13.486;2023-02-12T06:28:57;103302.16;;;8.51;87.72
9695;BME280;4690;52.422;13.486;2023-02-12T06:31:31;103308.31;;;8.53;87.19
9695;BME280;4690;52.422;13.486;2023-02-12T06:34:01;103307.44;;;8.52;87.42
9695;BME280;4690;52.422;13.486;2023-02-12T06:36:27;103314.78;;;8.52;87.26
9695;BME280;4690;52.422;13.486;2023-02-12T06:38:53;103306.75;;;8.50;87.11
9695;BME280;4690;52.422;13.486;2023-02-12T06:41:20;103316.38;;;8.55;87.27
9695;BME280;4690;52.422;13.486;2023-02-12T06:43:47;103320.97;;;8.54;86.78
9695;BME280;4690;52.422;13.486;2023-02-12T06:46:14;103320.97;;;8.54;87.35
9695;BME280;4690;52.422;13.486;2023-02-12T06:48:40;103316.50;;;8.53;87.27
9695;BME280;4690;52.422;13.486;2023-02-12T06:51:17;103323.72;;;8.54;87.50
9695;BME280;4690;52.422;13.486;2023-02-12T06:53:43;103330.44;;;8.60;87.35
9695;BME280;4690;52.422;13.486;2023-02-12T06:56:12;103346.69;;;8.61;86.96
9695;BME280;4690;52.422;13.486;2023-02-12T06:58:41;103344.97;;;8.60;87.22
9695;BME280;4690;52.422;13.486;2023-02-12T07:01:15;103343.63;;;8.64;87.09
9695;BME280;4690;52.422;13.486;2023-02-12T07:03:48;103351.56;;;8.67;87.27
9695;BME280;4690;52.422;13.486;2023-02-12T07:06:14;103350.25;;;8.71;86.83
9695;BME280;4690;52.422;13.486;2023-02-12T07:08:40;103350.56;;;8.68;86.91
9695;BME280;4690;52.422;13.486;2023-02-12T07:11:09;103354.13;;;8.69;86.71
9695;BME280;4690;52.422;13.486;2023-02-12T07:13:35;103352.97;;;8.71;87.32
9695;BME280;4690;52.422;13.486;2023-02-12T07:16:06;103353.31;;;8.59;86.74
9695;BME280;4690;52.422;13.486;2023-02-12T07:18:34;103361.06;;;8.63;87.11
9695;BME280;4690;52.422;13.486;2023-02-12T07:21:00;103360.75;;;8.76;87.22
9695;BME280;4690;52.422;13.486;2023-02-12T07:23:26;103364.75;;;8.82;86.43
9695;BME280;4690;52.422;13.486;2023-02-12T07:26:05;103365.13;;;8.87;86.57
9695;BME280;4690;52.422;13.486;2023-02-12T07:28:32;103378.25;;;8.83;85.77
9695;BME280;4690;52.422;13.486;2023-02-12T07:31:06;103372.16;;;8.89;85.88
9695;BME280;4690;52.422;13.486;2023-02-12T07:33:33;103373.19;;;8.88;86.15
9695;BME280;4690;52.422;13.486;2023-02-12T07:36:00;103375.00;;;8.97;86.03
9695;BME280;4690;52.422;13.486;2023-02-12T07:38:30;103371.13;;;9.00;84.84
9695;BME280;4690;52.422;13.486;2023-02-12T07:41:08;103371.84;;;9.02;85.50
9695;BME280;4690;52.422;13.486;2023-02-12T07:43:35;103370.81;;;9.03;85.01
9695;BME280;4690;52.422;13.486;2023-02-12T07:46:21;103375.28;;;9.04;85.32
9695;BME280;4690;52.422;13.486;2023-02-12T07:48:47;103372.84;;;9.01;85.02
9695;BME280;4690;52.422;13.486;2023-02-12T07:51:17;103383.75;;;9.11;84.79
9695;BME280;4690;52.422;13.486;2023-02-12T07:53:47;103394.06;;;9.17;84.41
9695;BME280;4690;52.422;13.486;2023-02-12T07:56:23;103401.50;;;8.97;84.46
9695;BME280;4690;52.422;13.486;2023-02-12T07:58:52;103392.69;;;9.03;84.54
9695;BME280;4690;52.422;13.486;2023-02-12T08:01:28;103393.56;;;9.04;84.37
9695;BME280;4690;52.422;13.486;2023-02-12T08:04:11;103397.56;;;8.82;84.88
9695;BME280;4690;52.422;13.486;2023-02-12T08:06:46;103396.94;;;8.88;84.95
9695;BME280;4690;52.422;13.486;2023-02-12T08:09:20;103398.56;;;8.81;85.14
9695;BME280;4690;52.422;13.486;2023-02-12T08:11:46;103401.56;;;8.87;85.27
9695;BME280;4690;52.422;13.486;2023-02-12T08:14:15;103398.34;;;9.02;84.67
9695;BME280;4690;52.422;13.486;2023-02-12T08:16:43;103399.91;;;9.04;84.42
9695;BME280;4690;52.422;13.486;2023-02-12T08:19:10;103404.28;;;9.15;84.22
9695;BME280;4690;52.422;13.486;2023-02-12T08:21:36;103409.19;;;9.21;83.65
9695;BME280;4690;52.422;13.486;2023-02-12T08:24:02;103402.34;;;9.07;83.80
9695;BME280;4690;52.422;13.486;2023-02-12T08:26:34;103406.38;;;9.03;84.51
9695;BME280;4690;52.422;13.486;2023-02-12T08:29:09;103408.13;;;9.04;84.22
9695;BME280;4690;52.422;13.486;2023-02-12T08:31:42;103428.97;;;9.05;84.72
9695;BME280;4690;52.422;13.486;2023-02-12T08:34:24;103418.84;;;9.15;83.73
9695;BME280;4690;52.422;13.486;2023-02-12T08:36:53;103419.16;;;9.12;83.70
9695;BME280;4690;52.422;13.486;2023-02-12T08:39:20;103426.59;;;9.20;83.49
9695;BME280;4690;52.422;13.486;2023-02-12T08:41:46;103429.63;;;9.17;83.18
9695;BME280;4690;52.422;13.486;2023-02-12T08:44:13;103428.63;;;9.18;83.74
9695;BME280;4690;52.422;13.486;2023-02-12T08:46:47;103433.69;;;9.13;83.44
9695;BME280;4690;52.422;13.486;2023-02-12T08:49:18;103434.09;;;9.18;83.54
9695;BME280;4690;52.422;13.486;2023-02-12T08:51:48;103433.50;;;9.24;83.63
9695;BME280;4690;52.422;13.486;2023-02-12T08:54:23;103445.19;;;9.16;84.00
9695;BME280;4690;52.422;13.486;2023-02-12T08:56:54;103445.72;;;9.30;83.61
9695;BME280;4690;52.422;13.486;2023-02-12T08:59:20;103452.44;;;9.35;83.11
9695;BME280;4690;52.422;13.486;2023-02-12T09:01:50;103448.59;;;9.28;82.88
9695;BME280;4690;52.422;13.486;2023-02-12T09:04:27;103450.06;;;9.23;83.11
9695;BME280;4690;52.422;13.486;2023-02-12T09:06:54;103452.28;;;9.37;82.69
9695;BME280;4690;52.422;13.486;2023-02-12T09:09:21;103461.66;;;9.34;82.82
9695;BME280;4690;52.422;13.486;2023-02-12T09:11:47;103453.75;;;9.31;82.57
9695;BME280;4690;52.422;13.486;2023-02-12T09:14:15;103454.88;;;9.38;82.95
9695;BME280;4690;52.422;13.486;2023-02-12T09:16:42;103450.88;;;9.33;83.21
9695;BME280;4690;52.422;13.486;2023-02-12T09:19:11;103464.34;;;9.16;83.61
9695;BME280;4690;52.422;13.486;2023-02-12T09:21:38;103464.78;;;9.12;83.85
9695;BME280;4690;52.422;13.486;2023-02-12T09:24:04;103470.22;;;9.22;83.52
9695;BME280;4690;52.422;13.486;2023-02-12T09:26:30;103467.88;;;8.99;83.53
9695;BME280;4690;52.422;13.486;2023-02-12T09:28:56;103472.31;;;9.10;83.96
9695;BME280;4690;52.422;13.486;2023-02-12T09:31:27;103479.63;;;9.09;84.05
9695;BME280;4690;52.422;13.486;2023-02-12T09:33:58;103484.53;;;9.06;84.25
9695;BME280;4690;52.422;13.486;2023-02-12T09:36:25;103481.34;;;9.10;84.69
9695;BME280;4690;52.422;13.486;2023-02-12T09:38:51;103484.22;;;9.18;83.43
9695;BME280;4690;52.422;13.486;2023-02-12T09:44:21;103479.28;;;9.22;84.40
9695;BME280;4690;52.422;13.486;2023-02-12T09:47:07;103478.78;;;9.36;83.27
9695;BME280;4690;52.422;13.486;2023-02-12T09:52:45;103490.78;;;9.63;82.76
9695;BME280;4690;52.422;13.486;2023-02-12T09:55:17;103488.03;;;9.63;82.55
9695;BME280;4690;52.422;13.486;2023-02-12T09:57:45;103487.34;;;9.79;82.40
9695;BME280;4690;52.422;13.486;2023-02-12T10:00:21;103493.09;;;9.85;80.86
9695;BME280;4690;52.422;13.486;2023-02-12T10:02:52;103491.09;;;9.78;81.34
9695;BME280;4690;52.422;13.486;2023-02-12T10:05:35;103493.41;;;10.00;81.56
9695;BME280;4690;52.422;13.486;2023-02-12T10:22:37;103483.16;;;10.38;79.25
9695;BME280;4690;52.422;13.486;2023-02-12T10:25:25;103484.50;;;10.34;78.90
9695;BME280;4690;52.422;13.486;2023-02-12T10:28:01;103487.69;;;10.12;80.18
9695;BME280;4690;52.422;13.486;2023-02-12T10:30:54;103482.63;;;10.35;80.29
9695;BME280;4690;52.422;13.486;2023-02-12T10:33:31;103482.78;;;10.51;79.03
9695;BME280;4690;52.422;13.486;2023-02-12T10:37:10;103482.59;;;10.52;78.31
9695;BME280;4690;52.422;13.486;2023-02-12T10:39:35;103486.38;;;10.51;78.93
9695;BME280;4690;52.422;13.486;2023-02-12T10:44:51;103478.75;;;10.63;78.28
9695;BME280;4690;52.422;13.486;2023-02-12T10:47:20;103482.72;;;10.69;78.50
9695;BME280;4690;52.422;13.486;2023-02-12T10:50:00;103473.81;;;10.93;78.08
9695;BME280;4690;52.422;13.486;2023-02-12T10:52:42;103477.31;;;10.77;77.99
9695;BME280;4690;52.422;13.486;2023-02-12T10:55:35;103481.16;;;10.92;78.04
9695;BME280;4690;52.422;13.486;2023-02-12T10:58:17;103479.88;;;11.05;77.55
9695;BME280;4690;52.422;13.486;2023-02-12T11:00:43;103487.63;;;10.83;78.18
9695;BME280;4690;52.422;13.486;2023-02-12T11:05:43;103482.47;;;10.80;78.60
9695;BME280;4690;52.422;13.486;2023-02-12T11:08:35;103485.19;;;10.54;79.82
9695;BME280;4690;52.422;13.486;2023-02-12T11:11:11;103484.25;;;10.45;81.03
9695;BME280;4690;52.422;13.486;2023-02-12T11:13:43;103481.00;;;10.42;81.52
9695;BME280;4690;52.422;13.486;2023-02-12T11:16:11;103477.13;;;10.35;81.88
9695;BME280;4690;52.422;13.486;2023-02-12T11:18:38;103473.69;;;10.32;82.46
9695;BME280;4690;52.422;13.486;2023-02-12T11:21:09;103479.84;;;9.99;84.07
9695;BME280;4690;52.422;13.486;2023-02-12T11:23:42;103477.00;;;9.91;84.80
9695;BME280;4690;52.422;13.486;2023-02-12T11:28:56;103476.47;;;9.87;85.74
9695;BME280;4690;52.422;13.486;2023-02-12T11:31:30;103477.91;;;9.91;86.43
9695;BME280;4690;52.422;13.486;2023-02-12T11:36:52;103469.19;;;9.96;87.54
9695;BME280;4690;52.422;13.486;2023-02-12T11:39:37;103470.22;;;10.13;87.02
9695;BME280;4690;52.422;13.486;2023-02-12T11:42:18;103464.44;;;10.16;85.87
9695;BME280;4690;52.422;13.486;2023-02-12T11:44:52;103455.66;;;10.12;85.72
9695;BME280;4690;52.422;13.486;2023-02-12T11:47:26;103465.28;;;10.16;85.79
9695;BME280;4690;52.422;13.486;2023-02-12T11:50:03;103464.75;;;10.13;85.51
9695;BME280;4690;52.422;13.486;2023-02-12T11:52:35;103462.63;;;10.06;85.61
9695;BME280;4690;52.422;13.486;2023-02-12T11:55:25;103466.47;;;9.96;85.92
9695;BME280;4690;52.422;13.486;2023-02-12T11:58:15;103459.09;;;9.96;86.42
9695;BME280;4690;52.422;13.486;2023-02-12T12:01:14;103460.59;;;10.08;85.43
9695;BME280;4690;52.422;13.486;2023-02-12T12:04:08;103455.22;;;10.17;85.40
9695;BME280;4690;52.422;13.486;2023-02-12T12:09:28;103464.50;;;10.24;84.20
9695;BME280;4690;52.422;13.486;2023-02-12T12:14:36;103453.31;;;9.99;84.71
9695;BME280;4690;52.422;13.486;2023-02-12T12:20:31;103453.97;;;10.11;85.07
9695;BME280;4690;52.422;13.486;2023-02-12T12:23:34;103455.44;;;10.41;84.92
9695;BME280;4690;52.422;13.486;2023-02-12T12:26:20;103448.09;;;10.68;84.23
9695;BME280;4690;52.422;13.486;2023-02-12T12:29:25;103444.09;;;10.88;82.06
9695;BME280;4690;52.422;13.486;2023-02-12T12:31:59;103444.53;;;11.02;80.78
9695;BME280;4690;52.422;13.486;2023-02-12T12:34:27;103430.47;;;11.05;79.88
9695;BME280;4690;52.422;13.486;2023-02-12T12:40:08;103419.22;;;10.82;78.02
9695;BME280;4690;52.422;13.486;2023-02-12T12:42:59;103422.16;;;10.88;78.35
9695;BME280;4690;52.422;13.486;2023-02-12T12:46:15;103422.72;;;11.00;77.74
9695;BME280;4690;52.422;13.486;2023-02-12T13:07:12;103415.00;;;12.38;74.37
9695;BME280;4690;52.422;13.486;2023-02-12T13:15:38;103415.97;;;12.61;70.50
9695;BME280;4690;52.422;13.486;2023-02-12T13:26:58;103421.47;;;12.69;68.68
9695;BME280;4690;52.422;13.486;2023-02-12T13:29:37;103429.22;;;12.66;69.04
9695;BME280;4690;52.422;13.486;2023-02-12T13:32:18;103425.63;;;12.65;69.10
9695;BME280;4690;52.422;13.486;2023-02-12T13:34:47;103425.47;;;12.50;68.98
9695;BME280;4690;52.422;13.486;2023-02-12T13:37:24;103423.59;;;12.34;69.60
9695;BME280;4690;52.422;13.486;2023-02-12T13:39:59;103417.03;;;12.27;69.75
9695;BME280;4690;52.422;13.486;2023-02-12T13:56:50;103410.53;;;12.28;70.14
9695;BME280;4690;52.422;13.486;2023-02-12T13:59:38;103413.44;;;12.51;69.79
9695;BME280;4690;52.422;13.486;2023-02-12T14:02:27;103407.53;;;12.79;68.82
9695;BME280;4690;52.422;13.486;2023-02-12T14:05:04;103402.91;;;13.27;65.68
9695;BME280;4690;52.422;13.486;2023-02-12T14:07:45;103406.16;;;13.62;64.19
9695;BME280;4690;52.422;13.486;2023-02-12T14:10:30;103402.31;;;13.40;63.42
9695;BME280;4690;52.422;13.486;2023-02-12T14:13:21;103408.91;;;13.31;64.30
9695;BME280;4690;52.422;13.486;2023-02-12T14:15:52;103403.63;;;13.52;63.35
9695;BME280;4690;52.422;13.486;2023-02-12T14:18:36;103404.44;;;13.61;62.16
9695;BME280;4690;52.422;13.486;2023-02-12T14:23:44;103410.81;;;13.61;62.11
9695;BME280;4690;52.422;13.486;2023-02-12T14:26:16;103414.50;;;13.45;61.23
9695;BME280;4690;52.422;13.486;2023-02-12T14:29:05;103405.34;;;13.14;61.99
9695;BME280;4690;52.422;13.486;2023-02-12T14:31:41;103406.56;;;13.03;62.85
9695;BME280;4690;52.422;13.486;2023-02-12T14:41:52;103407.78;;;11.96;67.03
9695;BME280;4690;52.422;13.486;2023-02-12T14:46:55;103408.25;;;11.75;68.67
9695;BME280;4690;52.422;13.486;2023-02-12T14:49:43;103412.53;;;11.77;68.56
9695;BME280;4690;52.422;13.486;2023-02-12T14:54:45;103413.13;;;11.38;70.56
9695;BME280;4690;52.422;13.486;2023-02-12T14:57:26;103413.25;;;11.29;71.50
9695;BME280;4690;52.422;13.486;2023-02-12T15:00:26;103405.19;;;11.27;71.78
9695;BME280;4690;52.422;13.486;2023-02-12T15:03:17;103411.66;;;11.10;72.48
9695;BME280;4690;52.422;13.486;2023-02-12T15:09:00;103405.13;;;11.11;72.92
9695;BME280;4690;52.422;13.486;2023-02-12T15:14:10;103405.13;;;11.11;73.24
9695;BME280;4690;52.422;13.486;2023-02-12T15:16:48;103399.78;;;11.01;73.77
9695;BME280;4690;52.422;13.486;2023-02-12T15:22:38;103400.22;;;10.88;74.59
9695;BME280;4690;52.422;13.486;2023-02-12T15:25:31;103408.69;;;10.69;75.47
9695;BME280;4690;52.422;13.486;2023-02-12T15:28:21;103412.50;;;10.76;75.42
9695;BME280;4690;52.422;13.486;2023-02-12T15:30:50;103416.00;;;10.94;74.87
9695;BME280;4690;52.422;13.486;2023-02-12T15:33:27;103416.75;;;11.05;74.04
9695;BME280;4690;52.422;13.486;2023-02-12T15:35:54;103418.13;;;11.09;73.96
9695;BME280;4690;52.422;13.486;2023-02-12T15:38:35;103414.88;;;11.05;74.13
9695;BME280;4690;52.422;13.486;2023-02-12T15:41:03;103416.06;;;11.03;73.97
9695;BME280;4690;52.422;13.486;2023-02-12T15:43:33;103418.03;;;10.84;74.27
9695;BME280;4690;52.422;13.486;2023-02-12T15:46:04;103419.38;;;10.80;74.68
9695;BME280;4690;52.422;13.486;2023-02-12T15:48:36;103420.06;;;10.82;74.92
9695;BME280;4690;52.422;13.486;2023-02-12T15:51:33;103421.78;;;10.83;74.80
9695;BME280;4690;52.422;13.486;2023-02-12T15:54:03;103421.41;;;10.78;74.96
9695;BME280;4690;52.422;13.486;2023-02-12T15:56:31;103424.31;;;10.76;74.93
9695;BME280;4690;52.422;13.486;2023-02-12T15:59:00;103429.63;;;10.78;75.02
9695;BME280;4690;52.422;13.486;2023-02-12T16:01:33;103418.31;;;10.73;75.26